PWSweather.com
Personal Weather Stations
Station Observations
265NC
Va2kh, Stcasimir, QC G0A 3L0

Va2khStcasimir, QC G0A 3L0

Lat: 46.65839, Lon: -72.13905

Elevation: 105

Station Type: National Geographic 265NC

http://www.qsl.net/va2kh

High Low Average
Temperature 40.8°F4.9°C 40.5°F4.7°C 40.6°F4.8°C
Dew Point 37.5°F3.1°C 37.5°F3.1°C 37.5°F3.1°C
Winds 1.2 mph 1.9 kmh 0.8 mph 1.3 kmh 1.0 mph ENE1.6 kmh ENE
Wind Gusts 5.4 mph8.7 kmh 4.5 mph7.2 kmh 5.0 mph8.0 kmh
Humidity 89% 88% 89%
Pressure 29.91 in1012.9 mb 29.91 in1012.9 mb -
Precipitation 0.00 in0.0 mm - -
Hour Temp Dew Point Humidity Winds Wind Gusts Pressure Precip Precip Rate Daily Precip Total
12:00 AM 39.2°F4.0°C 36.2°F2.3°C 89% Calm Calm 1.6 mph2.6 kmh 29.91 in1012.9 mb 0.00 in0.0 mm 0.00 in/hr0.0 mm/hr 0.00 in0.0 mm
12:15 AM 39.4°F4.1°C 37.0°F2.8°C 91% 1.3 mph ENE2.1 kmh ENE 6.0 mph9.7 kmh 29.90 in1012.5 mb 0.00 in0.0 mm 0.00 in/hr0.0 mm/hr 0.00 in0.0 mm
12:30 AM 39.6°F4.2°C 36.9°F2.7°C 90% Calm Calm 1.6 mph2.6 kmh 29.91 in1012.9 mb 0.00 in0.0 mm 0.00 in/hr0.0 mm/hr 0.00 in0.0 mm
12:45 AM 39.7°F4.3°C 37.1°F2.8°C 90% Calm Calm 1.6 mph2.6 kmh 29.91 in1012.9 mb 0.00 in0.0 mm 0.00 in/hr0.0 mm/hr 0.00 in0.0 mm
01:00 AM 40.5°F4.7°C 37.5°F3.1°C 89% 1.2 mph NE1.9 kmh NE 4.5 mph7.2 kmh 29.91 in1012.9 mb 0.00 in0.0 mm 0.00 in/hr0.0 mm/hr 0.00 in0.0 mm
01:15 AM 40.8°F4.9°C 37.5°F3.1°C 88% 0.8 mph E1.3 kmh E 5.4 mph8.7 kmh 29.91 in1012.9 mb 0.00 in0.0 mm 0.00 in/hr0.0 mm/hr 0.00 in0.0 mm
01:30 AM 41.2°F5.1°C 37.6°F3.1°C 87% 2.3 mph ENE3.7 kmh ENE 5.4 mph8.7 kmh 29.91 in1012.9 mb 0.00 in0.0 mm 0.00 in/hr0.0 mm/hr 0.00 in0.0 mm
01:45 AM 41.4°F5.2°C 37.8°F3.2°C 87% 0.8 mph SE1.3 kmh SE 6.0 mph9.7 kmh 29.91 in1012.9 mb 0.00 in0.0 mm 0.00 in/hr0.0 mm/hr 0.00 in0.0 mm
02:00 AM 41.7°F5.4°C 38.7°F3.7°C 89% 2.6 mph ENE4.2 kmh ENE 10.7 mph17.2 kmh 29.90 in1012.5 mb 0.00 in0.0 mm 0.00 in/hr0.0 mm/hr 0.00 in0.0 mm
02:15 AM 42.6°F5.9°C 39.6°F4.2°C 89% 0.9 mph E1.4 kmh E 3.8 mph6.1 kmh 29.91 in1012.9 mb 0.00 in0.0 mm 0.00 in/hr0.0 mm/hr 0.00 in0.0 mm
02:30 AM 41.9°F5.5°C 39.2°F4.0°C 90% 0.8 mph E1.3 kmh E 3.8 mph6.1 kmh 29.90 in1012.5 mb 0.00 in0.0 mm 0.00 in/hr0.0 mm/hr 0.00 in0.0 mm
02:45 AM 42.3°F5.7°C 39.8°F4.3°C 91% 1.6 mph E2.6 kmh E 5.4 mph8.7 kmh 29.89 in1012.2 mb 0.01 in0.3 mm 0.04 in/hr1.0 mm/hr 0.01 in0.3 mm
03:00 AM 42.3°F5.7°C 39.8°F4.3°C 91% 1.1 mph ENE1.8 kmh ENE 5.4 mph8.7 kmh 29.89 in1012.2 mb 0.01 in0.3 mm 0.00 in/hr0.0 mm/hr 0.01 in0.3 mm
03:15 AM 42.4°F5.8°C 40.0°F4.4°C 91% 0.8 mph ENE1.3 kmh ENE 4.5 mph7.2 kmh 29.89 in1012.2 mb 0.01 in0.3 mm 0.00 in/hr0.0 mm/hr 0.01 in0.3 mm
03:30 AM 42.4°F5.8°C 40.0°F4.4°C 91% 1.0 mph E1.6 kmh E 3.8 mph6.1 kmh 29.89 in1012.2 mb 0.02 in0.5 mm 0.04 in/hr1.0 mm/hr 0.02 in0.5 mm
03:45 AM 42.3°F5.7°C 40.1°F4.5°C 92% 2.9 mph ENE4.7 kmh ENE 6.0 mph9.7 kmh 29.88 in1011.9 mb 0.01 in0.3 mm 0.00 in/hr0.0 mm/hr 0.02 in0.5 mm
04:00 AM 41.9°F5.5°C 40.0°F4.4°C 93% 2.7 mph E4.3 kmh E 9.2 mph14.8 kmh 29.88 in1011.9 mb 0.02 in0.5 mm 0.01 in/hr0.3 mm/hr 0.04 in1.0 mm
04:15 AM 41.7°F5.4°C 39.8°F4.3°C 93% 1.0 mph NE1.6 kmh NE 4.5 mph7.2 kmh 29.87 in1011.5 mb 0.02 in0.5 mm 0.00 in/hr0.0 mm/hr 0.04 in1.0 mm
04:30 AM 41.5°F5.3°C 39.9°F4.4°C 94% 0.6 mph E1.0 kmh E 3.1 mph5.0 kmh 29.87 in1011.5 mb 0.02 in0.5 mm 0.00 in/hr0.0 mm/hr 0.05 in1.3 mm
04:45 AM 41.2°F5.1°C 39.9°F4.4°C 95% 0.4 mph ENE0.6 kmh ENE 3.1 mph5.0 kmh 29.87 in1011.5 mb 0.02 in0.5 mm 0.00 in/hr0.0 mm/hr 0.05 in1.3 mm
05:00 AM 41.2°F5.1°C 39.9°F4.4°C 95% 1.5 mph ENE2.4 kmh ENE 4.5 mph7.2 kmh 29.87 in1011.5 mb 0.01 in0.3 mm 0.00 in/hr0.0 mm/hr 0.05 in1.3 mm
05:15 AM 41.0°F5.0°C 39.7°F4.3°C 95% 0.5 mph ENE0.8 kmh ENE 3.1 mph5.0 kmh 29.86 in1011.2 mb 0.00 in0.0 mm 0.00 in/hr0.0 mm/hr 0.05 in1.3 mm
05:30 AM 40.8°F4.9°C 39.8°F4.3°C 96% 0.2 mph NE0.3 kmh NE 2.2 mph3.5 kmh 29.87 in1011.5 mb 0.00 in0.0 mm 0.00 in/hr0.0 mm/hr 0.05 in1.3 mm
05:45 AM 40.6°F4.8°C 39.6°F4.2°C 96% 1.6 mph ENE2.6 kmh ENE 5.4 mph8.7 kmh 29.86 in1011.2 mb 0.00 in0.0 mm 0.00 in/hr0.0 mm/hr 0.05 in1.3 mm
06:00 AM 40.5°F4.7°C 39.7°F4.3°C 97% 2.4 mph E3.9 kmh E 6.0 mph9.7 kmh 29.86 in1011.2 mb 0.01 in0.3 mm 0.01 in/hr0.3 mm/hr 0.06 in1.5 mm
06:15 AM 40.5°F4.7°C 39.7°F4.3°C 97% 3.8 mph E6.1 kmh E 9.2 mph14.8 kmh 29.86 in1011.2 mb 0.01 in0.3 mm 0.00 in/hr0.0 mm/hr 0.06 in1.5 mm
06:30 AM 40.3°F4.6°C 39.8°F4.3°C 98% 4.1 mph E6.6 kmh E 10.7 mph17.2 kmh 29.85 in1010.8 mb 0.01 in0.3 mm 0.00 in/hr0.0 mm/hr 0.06 in1.5 mm
06:45 AM 40.3°F4.6°C 39.8°F4.3°C 98% 3.3 mph E5.3 kmh E 11.4 mph18.3 kmh 29.86 in1011.2 mb 0.02 in0.5 mm 0.04 in/hr1.0 mm/hr 0.07 in1.8 mm
07:00 AM 40.1°F4.5°C 39.8°F4.3°C 99% 5.1 mph E8.2 kmh E 10.7 mph17.2 kmh 29.84 in1010.5 mb 0.02 in0.5 mm 0.00 in/hr0.0 mm/hr 0.08 in2.0 mm
07:15 AM 39.9°F4.4°C 39.7°F4.3°C 99% 4.1 mph E6.6 kmh E 12.1 mph19.5 kmh 29.84 in1010.5 mb 0.02 in0.5 mm 0.00 in/hr0.0 mm/hr 0.08 in2.0 mm
07:30 AM 39.9°F4.4°C 39.7°F4.3°C 99% 5.1 mph E8.2 kmh E 13.0 mph20.9 kmh 29.83 in1010.2 mb 0.04 in1.0 mm 0.08 in/hr2.0 mm/hr 0.09 in2.3 mm
07:45 AM 39.9°F4.4°C 39.7°F4.3°C 99% 5.8 mph E9.3 kmh E 13.0 mph20.9 kmh 29.82 in1009.8 mb 0.02 in0.5 mm 0.00 in/hr0.0 mm/hr 0.09 in2.3 mm
08:00 AM 40.3°F4.6°C 40.0°F4.4°C 99% 4.9 mph ENE7.9 kmh ENE 11.4 mph18.3 kmh 29.82 in1009.8 mb 0.02 in0.5 mm 0.00 in/hr0.0 mm/hr 0.11 in2.8 mm
08:15 AM 40.6°F4.8°C 40.4°F4.7°C 99% 6.7 mph E10.8 kmh E 15.9 mph25.6 kmh 29.80 in1009.1 mb 0.02 in0.5 mm 0.00 in/hr0.0 mm/hr 0.11 in2.8 mm
08:30 AM 41.4°F5.2°C 41.1°F5.1°C 99% 5.8 mph E9.3 kmh E 16.8 mph27.0 kmh 29.80 in1009.1 mb 0.01 in0.3 mm 0.00 in/hr0.0 mm/hr 0.11 in2.8 mm
08:45 AM 41.4°F5.2°C 41.1°F5.1°C 99% 1.2 mph N1.9 kmh N 6.9 mph11.1 kmh 29.83 in1010.2 mb 0.01 in0.3 mm 0.00 in/hr0.0 mm/hr 0.11 in2.8 mm
09:00 AM 41.4°F5.2°C 41.1°F5.1°C 99% 1.6 mph E2.6 kmh E 8.3 mph13.4 kmh 29.81 in1009.5 mb 0.00 in0.0 mm 0.00 in/hr0.0 mm/hr 0.11 in2.8 mm
09:15 AM 41.4°F5.2°C 41.1°F5.1°C 99% 2.7 mph E4.3 kmh E 8.3 mph13.4 kmh 29.80 in1009.1 mb 0.00 in0.0 mm 0.00 in/hr0.0 mm/hr 0.11 in2.8 mm
09:30 AM 41.9°F5.5°C 41.6°F5.3°C 99% 4.0 mph E6.4 kmh E 11.4 mph18.3 kmh 29.79 in1008.8 mb 0.00 in0.0 mm 0.00 in/hr0.0 mm/hr 0.11 in2.8 mm
09:45 AM 42.3°F5.7°C 42.0°F5.6°C 99% 3.4 mph ENE5.5 kmh ENE 7.6 mph12.2 kmh 29.79 in1008.8 mb 0.00 in0.0 mm 0.00 in/hr0.0 mm/hr 0.11 in2.8 mm
10:00 AM 42.4°F5.8°C 41.7°F5.4°C 97% 4.2 mph E6.8 kmh E 9.8 mph15.8 kmh 29.78 in1008.5 mb 0.00 in0.0 mm 0.00 in/hr0.0 mm/hr 0.11 in2.8 mm
10:15 AM 42.4°F5.8°C 41.7°F5.4°C 97% 6.0 mph E9.7 kmh E 15.2 mph24.5 kmh 29.78 in1008.5 mb 0.00 in0.0 mm 0.00 in/hr0.0 mm/hr 0.11 in2.8 mm
10:30 AM 42.6°F5.9°C 41.8°F5.4°C 97% 4.3 mph E6.9 kmh E 11.4 mph18.3 kmh 29.78 in1008.5 mb 0.02 in0.5 mm 0.08 in/hr2.0 mm/hr 0.13 in3.3 mm
10:45 AM 42.3°F5.7°C 41.7°F5.4°C 98% 3.5 mph E5.6 kmh E 8.3 mph13.4 kmh 29.77 in1008.1 mb 0.04 in1.0 mm 0.08 in/hr2.0 mm/hr 0.14 in3.6 mm
11:00 AM 42.4°F5.8°C 42.2°F5.7°C 99% 3.5 mph E5.6 kmh E 8.3 mph13.4 kmh 29.75 in1007.5 mb 0.06 in1.5 mm 0.03 in/hr0.8 mm/hr 0.17 in4.3 mm
11:15 AM 42.3°F5.7°C 42.0°F5.6°C 99% 3.8 mph E6.1 kmh E 9.8 mph15.8 kmh 29.76 in1007.8 mb 0.07 in1.8 mm 0.04 in/hr1.0 mm/hr 0.18 in4.6 mm
11:30 AM 42.3°F5.7°C 42.0°F5.6°C 99% 3.3 mph ESE5.3 kmh ESE 7.6 mph12.2 kmh 29.75 in1007.5 mb 0.07 in1.8 mm 0.00 in/hr0.0 mm/hr 0.20 in5.1 mm
11:45 AM 42.4°F5.8°C 42.2°F5.7°C 99% 3.9 mph SE6.3 kmh SE 11.4 mph18.3 kmh 29.75 in1007.5 mb 0.07 in1.8 mm 0.00 in/hr0.0 mm/hr 0.21 in5.3 mm
12:00 PM 42.8°F6.0°C 42.5°F5.8°C 99% 4.5 mph E7.2 kmh E 13.0 mph20.9 kmh 29.75 in1007.5 mb 0.05 in1.3 mm 0.00 in/hr0.0 mm/hr 0.21 in5.3 mm
12:15 PM 43.0°F6.1°C 42.7°F5.9°C 99% 4.3 mph ENE6.9 kmh ENE 9.8 mph15.8 kmh 29.73 in1006.8 mb 0.05 in1.3 mm 0.00 in/hr0.0 mm/hr 0.22 in5.6 mm
12:30 PM 43.2°F6.2°C 42.9°F6.1°C 99% 3.6 mph E5.8 kmh E 12.1 mph19.5 kmh 29.73 in1006.8 mb 0.02 in0.5 mm 0.00 in/hr0.0 mm/hr 0.22 in5.6 mm
12:45 PM 43.0°F6.1°C 42.7°F5.9°C 99% 6.7 mph E10.8 kmh E 15.2 mph24.5 kmh 29.73 in1006.8 mb 0.02 in0.5 mm 0.00 in/hr0.0 mm/hr 0.24 in6.1 mm
01:00 PM 43.2°F6.2°C 42.9°F6.1°C 99% 4.4 mph E7.1 kmh E 13.6 mph21.9 kmh 29.73 in1006.8 mb 0.02 in0.5 mm 0.00 in/hr0.0 mm/hr 0.24 in6.1 mm
01:15 PM 43.0°F6.1°C 42.7°F5.9°C 99% 6.3 mph E10.1 kmh E 16.8 mph27.0 kmh 29.73 in1006.8 mb 0.02 in0.5 mm 0.00 in/hr0.0 mm/hr 0.25 in6.4 mm
01:30 PM 42.8°F6.0°C 42.5°F5.8°C 99% 4.3 mph E6.9 kmh E 12.1 mph19.5 kmh 29.72 in1006.4 mb 0.02 in0.5 mm 0.00 in/hr0.0 mm/hr 0.25 in6.4 mm
01:45 PM 42.6°F5.9°C 42.4°F5.8°C 99% 5.9 mph E9.5 kmh E 15.9 mph25.6 kmh 29.72 in1006.4 mb 0.02 in0.5 mm 0.00 in/hr0.0 mm/hr 0.26 in6.6 mm
02:00 PM 42.4°F5.8°C 42.2°F5.7°C 99% 2.3 mph ESE3.7 kmh ESE 8.3 mph13.4 kmh 29.71 in1006.1 mb 0.04 in1.0 mm 0.03 in/hr0.8 mm/hr 0.27 in6.9 mm
02:15 PM 42.3°F5.7°C 42.0°F5.6°C 99% 3.4 mph SE5.5 kmh SE 13.0 mph20.9 kmh 29.71 in1006.1 mb 0.04 in1.0 mm 0.00 in/hr0.0 mm/hr 0.28 in7.1 mm
02:30 PM 42.1°F5.6°C 41.8°F5.4°C 99% 4.1 mph E6.6 kmh E 9.8 mph15.8 kmh 29.71 in1006.1 mb 0.06 in1.5 mm 0.08 in/hr2.0 mm/hr 0.31 in7.9 mm
02:45 PM 41.9°F5.5°C 41.6°F5.3°C 99% 3.1 mph E5.0 kmh E 10.7 mph17.2 kmh 29.71 in1006.1 mb 0.07 in1.8 mm 0.04 in/hr1.0 mm/hr 0.33 in8.4 mm
03:00 PM 41.7°F5.4°C 41.5°F5.3°C 99% 3.3 mph E5.3 kmh E 12.1 mph19.5 kmh 29.70 in1005.8 mb 0.08 in2.0 mm 0.01 in/hr0.3 mm/hr 0.35 in8.9 mm
03:15 PM 41.2°F5.1°C 40.9°F4.9°C 99% 4.5 mph E7.2 kmh E 13.6 mph21.9 kmh 29.69 in1005.4 mb 0.09 in2.3 mm 0.04 in/hr1.0 mm/hr 0.38 in9.7 mm
03:30 PM 41.0°F5.0°C 40.7°F4.8°C 99% 1.5 mph E2.4 kmh E 8.3 mph13.4 kmh 29.70 in1005.8 mb 0.08 in2.0 mm 0.00 in/hr0.0 mm/hr 0.39 in9.9 mm
03:45 PM 41.0°F5.0°C 40.7°F4.8°C 99% 3.7 mph E6.0 kmh E 11.4 mph18.3 kmh 29.68 in1005.1 mb 0.11 in2.8 mm 0.12 in/hr3.0 mm/hr 0.44 in11.2 mm
04:00 PM 41.0°F5.0°C 40.7°F4.8°C 99% 1.9 mph E3.1 kmh E 6.0 mph9.7 kmh 29.69 in1005.4 mb 0.11 in2.8 mm 0.00 in/hr0.0 mm/hr 0.46 in11.7 mm
04:15 PM 40.8°F4.9°C 40.6°F4.8°C 99% 4.1 mph E6.6 kmh E 9.2 mph14.8 kmh 29.68 in1005.1 mb 0.11 in2.8 mm 0.00 in/hr0.0 mm/hr 0.48 in12.2 mm
04:30 PM 40.8°F4.9°C 40.6°F4.8°C 99% 4.0 mph E6.4 kmh E 9.8 mph15.8 kmh 29.67 in1004.7 mb 0.12 in3.0 mm 0.04 in/hr1.0 mm/hr 0.51 in13.0 mm
04:45 PM 40.8°F4.9°C 40.6°F4.8°C 99% 3.0 mph E4.8 kmh E 9.8 mph15.8 kmh 29.67 in1004.7 mb 0.09 in2.3 mm 0.00 in/hr0.0 mm/hr 0.53 in13.5 mm
05:00 PM 40.8°F4.9°C 40.6°F4.8°C 99% 2.7 mph E4.3 kmh E 6.9 mph11.1 kmh 29.67 in1004.7 mb 0.09 in2.3 mm 0.00 in/hr0.0 mm/hr 0.56 in14.2 mm
05:15 PM 40.8°F4.9°C 40.6°F4.8°C 99% 2.5 mph E4.0 kmh E 7.6 mph12.2 kmh 29.67 in1004.7 mb 0.11 in2.8 mm 0.08 in/hr2.0 mm/hr 0.59 in15.0 mm
05:30 PM 40.8°F4.9°C 40.6°F4.8°C 99% 2.3 mph E3.7 kmh E 7.6 mph12.2 kmh 29.67 in1004.7 mb 0.09 in2.3 mm 0.00 in/hr0.0 mm/hr 0.60 in15.2 mm
05:45 PM 40.6°F4.8°C 40.4°F4.7°C 99% 3.7 mph E6.0 kmh E 7.6 mph12.2 kmh 29.66 in1004.4 mb 0.08 in2.0 mm 0.00 in/hr0.0 mm/hr 0.61 in15.5 mm
06:00 PM 40.8°F4.9°C 40.6°F4.8°C 99% 2.7 mph E4.3 kmh E 6.0 mph9.7 kmh 29.66 in1004.4 mb 0.07 in1.8 mm 0.00 in/hr0.0 mm/hr 0.63 in16.0 mm
06:15 PM 40.8°F4.9°C 40.6°F4.8°C 99% 1.8 mph ESE2.9 kmh ESE 8.3 mph13.4 kmh 29.66 in1004.4 mb 0.05 in1.3 mm 0.00 in/hr0.0 mm/hr 0.64 in16.3 mm
06:30 PM 40.5°F4.7°C 39.4°F4.1°C 96% 0.8 mph SE1.3 kmh SE 6.0 mph9.7 kmh 29.66 in1004.4 mb 0.04 in1.0 mm 0.00 in/hr0.0 mm/hr 0.64 in16.3 mm
06:45 PM 40.3°F4.6°C 39.0°F3.9°C 95% 2.6 mph E4.2 kmh E 8.3 mph13.4 kmh 29.65 in1004.1 mb 0.04 in1.0 mm 0.00 in/hr0.0 mm/hr 0.65 in16.5 mm
07:00 PM 40.1°F4.5°C 38.8°F3.8°C 95% 4.3 mph E6.9 kmh E 11.4 mph18.3 kmh 29.65 in1004.1 mb 0.04 in1.0 mm 0.00 in/hr0.0 mm/hr 0.66 in16.8 mm
07:15 PM 40.1°F4.5°C 38.2°F3.4°C 93% 3.8 mph E6.1 kmh E 10.7 mph17.2 kmh 29.64 in1003.7 mb 0.04 in1.0 mm 0.00 in/hr0.0 mm/hr 0.67 in17.0 mm
07:30 PM 40.1°F4.5°C 38.0°F3.3°C 92% 2.1 mph ESE3.4 kmh ESE 7.6 mph12.2 kmh 29.64 in1003.7 mb 0.04 in1.0 mm 0.00 in/hr0.0 mm/hr 0.67 in17.0 mm
07:45 PM 40.1°F4.5°C 37.7°F3.2°C 91% 0.6 mph E1.0 kmh E 4.5 mph7.2 kmh 29.65 in1004.1 mb 0.02 in0.5 mm 0.00 in/hr0.0 mm/hr 0.67 in17.0 mm
08:00 PM 40.1°F4.5°C 36.5°F2.5°C 87% 0.5 mph NE0.8 kmh NE 3.8 mph6.1 kmh 29.65 in1004.1 mb 0.05 in1.3 mm 0.04 in/hr1.0 mm/hr 0.71 in18.0 mm
08:15 PM 40.3°F4.6°C 35.5°F1.9°C 83% 0.8 mph E1.3 kmh E 3.1 mph5.0 kmh 29.65 in1004.1 mb 0.06 in1.5 mm 0.04 in/hr1.0 mm/hr 0.73 in18.5 mm
08:30 PM 40.3°F4.6°C 35.5°F1.9°C 83% 0.8 mph NE1.3 kmh NE 3.8 mph6.1 kmh 29.65 in1004.1 mb 0.06 in1.5 mm 0.00 in/hr0.0 mm/hr 0.73 in18.5 mm
08:45 PM 40.3°F4.6°C 34.0°F1.1°C 78% 0.2 mph E0.3 kmh E 2.2 mph3.5 kmh 29.65 in1004.1 mb 0.08 in2.0 mm 0.08 in/hr2.0 mm/hr 0.76 in19.3 mm
09:00 PM 40.3°F4.6°C 34.3°F1.3°C 79% 0.6 mph NE1.0 kmh NE 3.1 mph5.0 kmh 29.65 in1004.1 mb 0.05 in1.3 mm 0.00 in/hr0.0 mm/hr 0.76 in19.3 mm
09:15 PM 40.3°F4.6°C 34.3°F1.3°C 79% 0.6 mph N1.0 kmh N 3.1 mph5.0 kmh 29.65 in1004.1 mb 0.06 in1.5 mm 0.04 in/hr1.0 mm/hr 0.79 in20.1 mm
09:30 PM 39.9°F4.4°C 33.3°F0.7°C 77% 0.2 mph NW0.3 kmh NW 3.1 mph5.0 kmh 29.65 in1004.1 mb 0.08 in2.0 mm 0.08 in/hr2.0 mm/hr 0.81 in20.6 mm
09:45 PM 39.9°F4.4°C 33.0°F0.6°C 76% 0.5 mph SW0.8 kmh SW 2.2 mph3.5 kmh 29.65 in1004.1 mb 0.08 in2.0 mm 0.00 in/hr0.0 mm/hr 0.84 in21.3 mm
10:00 PM 40.6°F4.8°C 33.7°F0.9°C 76% Calm Calm 1.6 mph2.6 kmh 29.65 in1004.1 mb 0.09 in2.3 mm 0.01 in/hr0.3 mm/hr 0.86 in21.8 mm
10:15 PM 39.9°F4.4°C 33.3°F0.7°C 77% Calm Calm -- 29.64 in1003.7 mb 0.09 in2.3 mm 0.00 in/hr0.0 mm/hr 0.89 in22.6 mm
10:30 PM 39.9°F4.4°C 33.3°F0.7°C 77% Calm Calm -- 29.64 in1003.7 mb 0.09 in2.3 mm 0.00 in/hr0.0 mm/hr 0.91 in23.1 mm
10:45 PM 39.9°F4.4°C 33.3°F0.7°C 77% Calm Calm -- 29.64 in1003.7 mb 0.08 in2.0 mm 0.00 in/hr0.0 mm/hr 0.92 in23.4 mm
11:00 PM 39.7°F4.3°C 32.8°F0.4°C 76% Calm Calm 1.6 mph2.6 kmh 29.64 in1003.7 mb 0.07 in1.8 mm 0.00 in/hr0.0 mm/hr 0.93 in23.6 mm
11:15 PM 39.6°F4.2°C 29.5°F-1.4°C 67% Calm Calm -- 29.63 in1003.4 mb 0.06 in1.5 mm 0.00 in/hr0.0 mm/hr 0.94 in23.9 mm
11:30 PM 39.6°F4.2°C 27.6°F-2.4°C 62% Calm Calm -- 29.62 in1003.0 mb 0.04 in1.0 mm 0.00 in/hr0.0 mm/hr 0.94 in23.9 mm
11:45 PM 39.6°F4.2°C 27.6°F-2.4°C 62% Calm Calm 0.7 mph1.1 kmh 29.62 in1003.0 mb 0.04 in1.0 mm 0.00 in/hr0.0 mm/hr 0.96 in24.4 mm